Time;durP1;ratioP1;P1;durP2;ratioP2;P2;SDS_P1;SDS_P2;PMS_P1;PMS_P2;Temp;Humidity;BMP_temperature;BMP_pressure;BME280_temperature;BME280_humidity;BME280_pressure;Samples;Min_cycle;Max_cycle;Signal;HPM_P1;HPM_P2
2022/03/01 00:00:31;;;;;;;19.92;9.15;;;;;;;2.11;68.08;102744.69;5074497;28;20027;-76
2022/03/01 00:02:57;;;;;;;20.20;9.52;;;;;;;2.00;68.39;102740.09;5074240;28;20043;-75
2022/03/01 00:05:22;;;;;;;19.10;8.07;;;;;;;2.06;68.50;102744.13;5074387;28;20491;-76
2022/03/01 00:07:47;;;;;;;19.58;10.05;;;;;;;2.01;68.24;102747.03;5073221;28;20032;-76
2022/03/01 00:10:13;;;;;;;19.40;8.98;;;;;;;2.04;68.55;102753.91;5072101;28;20052;-76
2022/03/01 00:12:38;;;;;;;22.17;10.70;;;;;;;1.94;68.55;102740.47;5073746;28;20037;-76
2022/03/01 00:15:05;;;;;;;19.63;8.77;;;;;;;2.00;68.43;102752.41;5072181;28;20114;-76
2022/03/01 00:17:30;;;;;;;24.40;10.45;;;;;;;1.98;68.44;102757.75;5072741;28;20372;-76
2022/03/01 00:19:55;;;;;;;19.77;10.18;;;;;;;1.95;68.80;102750.88;5073965;28;20051;-76
2022/03/01 00:22:21;;;;;;;20.73;9.98;;;;;;;1.95;68.51;102750.88;5073834;28;20055;-75
2022/03/01 00:24:46;;;;;;;22.85;11.38;;;;;;;1.93;69.01;102751.91;5072366;28;20115;-75
2022/03/01 00:27:12;;;;;;;19.65;9.60;;;;;;;1.89;69.71;102760.94;5072981;28;20098;-75
2022/03/01 00:29:37;;;;;;;18.27;9.43;;;;;;;1.77;70.43;102754.63;5073250;28;20056;-76
2022/03/01 00:32:03;;;;;;;20.80;10.07;;;;;;;1.59;70.35;102755.72;5073002;28;20047;-76
2022/03/01 00:34:28;;;;;;;19.17;9.50;;;;;;;1.48;70.93;102761.63;5072931;28;20033;-75
2022/03/01 00:36:54;;;;;;;22.05;9.30;;;;;;;1.37;71.48;102761.41;5073575;28;20032;-75
2022/03/01 00:39:19;;;;;;;21.67;9.57;;;;;;;1.29;71.20;102757.44;5073634;28;20032;-75
2022/03/01 00:41:45;;;;;;;19.00;9.95;;;;;;;1.29;71.70;102757.44;5074072;28;20036;-76
2022/03/01 00:44:10;;;;;;;23.55;10.95;;;;;;;1.28;71.08;102753.13;5073354;28;20025;-76
2022/03/01 00:46:36;;;;;;;20.50;9.73;;;;;;;1.30;70.81;102745.97;5073874;28;20039;-75
2022/03/01 00:49:01;;;;;;;21.58;10.13;;;;;;;1.35;71.13;102748.34;5073692;28;20024;-75
2022/03/01 00:51:28;;;;;;;24.80;12.02;;;;;;;1.35;70.95;102743.09;5073477;28;20037;-76
2022/03/01 00:53:53;;;;;;;21.25;10.70;;;;;;;1.34;70.68;102743.16;5073256;28;20024;-76
2022/03/01 00:56:19;;;;;;;20.02;8.90;;;;;;;1.41;70.85;102750.59;5073669;28;20376;-76
2022/03/01 00:58:44;;;;;;;21.17;9.85;;;;;;;1.40;71.06;102742.81;5073869;28;20036;-76
2022/03/01 01:01:10;;;;;;;20.33;10.00;;;;;;;1.34;70.61;102736.16;5072556;28;20017;-75
2022/03/01 01:03:35;;;;;;;21.73;9.65;;;;;;;1.41;70.69;102744.50;5073228;28;20111;-75
2022/03/01 01:06:01;;;;;;;18.75;9.07;;;;;;;1.38;70.67;102739.44;5073086;28;20033;-75
2022/03/01 01:08:26;;;;;;;19.98;10.25;;;;;;;1.38;70.71;102742.06;5072959;28;20369;-75
2022/03/01 01:10:52;;;;;;;20.83;10.02;;;;;;;1.39;70.48;102743.75;5072978;28;20181;-75
2022/03/01 01:13:19;;;;;;;23.27;9.48;;;;;;;1.35;70.60;102739.63;5072212;28;20089;-76
2022/03/01 01:15:44;;;;;;;20.92;10.45;;;;;;;1.41;70.33;102750.59;5073235;28;20025;-75
2022/03/01 01:18:09;;;;;;;18.75;9.70;;;;;;;1.43;70.54;102754.00;5073538;28;20028;-76
2022/03/01 01:20:35;;;;;;;21.60;9.82;;;;;;;1.43;70.59;102759.25;5071655;28;20049;-75
2022/03/01 01:23:01;;;;;;;23.67;10.65;;;;;;;1.39;70.50;102754.25;5072735;28;20059;-76
2022/03/01 01:25:26;;;;;;;19.92;8.98;;;;;;;1.40;71.16;102741.03;5071242;28;20079;-76
2022/03/01 01:27:55;;;;;;;23.85;10.30;;;;;;;1.38;71.13;102747.31;5072947;28;20131;-75
2022/03/01 01:30:24;;;;;;;20.80;10.23;;;;;;;1.37;70.92;102743.84;5071956;28;20053;-75
2022/03/01 01:32:50;;;;;;;19.60;9.77;;;;;;;1.37;70.95;102745.66;5072464;28;20040;-75
2022/03/01 01:35:17;;;;;;;20.70;9.30;;;;;;;1.39;70.80;102744.63;5071139;28;20169;-75
2022/03/01 01:37:43;;;;;;;22.85;10.90;;;;;;;1.37;70.55;102730.72;5072607;28;20028;-75
2022/03/01 01:40:12;;;;;;;21.00;9.48;;;;;;;1.47;70.18;102747.63;5072616;28;20035;-75
2022/03/01 01:42:39;;;;;;;19.63;9.02;;;;;;;1.47;69.86;102749.44;5072873;28;20537;-75
2022/03/01 01:45:05;;;;;;;25.75;11.30;;;;;;;1.46;70.05;102743.28;5072491;28;20040;-75
2022/03/01 01:47:31;;;;;;;22.83;10.65;;;;;;;1.44;69.91;102745.19;5072726;28;20488;-75
2022/03/01 01:49:56;;;;;;;21.05;10.07;;;;;;;1.41;70.50;102737.47;5072290;28;20056;-76
2022/03/01 01:52:24;;;;;;;22.48;10.10;;;;;;;1.39;70.52;102747.25;5072451;28;20052;-75
2022/03/01 01:54:49;;;;;;;22.38;9.63;;;;;;;1.38;70.27;102745.53;5072162;28;20040;-75
2022/03/01 01:57:22;;;;;;;22.15;12.10;;;;;;;1.38;70.28;102734.19;5071922;28;20028;-76
2022/03/01 01:59:49;;;;;;;21.42;9.95;;;;;;;1.39;70.29;102738.50;5072345;28;20021;-75
2022/03/01 02:02:17;;;;;;;25.10;11.88;;;;;;;1.36;70.35;102738.66;5072273;28;20024;-75
2022/03/01 02:04:43;;;;;;;24.95;12.00;;;;;;;1.32;70.25;102738.00;5072202;28;20062;-75
2022/03/01 02:07:10;;;;;;;25.98;12.88;;;;;;;1.31;70.13;102738.97;5072109;28;20028;-75
2022/03/01 02:09:36;;;;;;;18.33;8.38;;;;;;;1.36;70.27;102736.88;5072105;28;20115;-75
2022/03/01 02:12:05;;;;;;;25.33;11.45;;;;;;;1.37;70.22;102733.34;5071938;28;20103;-75
2022/03/01 02:14:32;;;;;;;25.90;10.90;;;;;;;1.38;70.27;102740.28;5071615;28;20036;-75
2022/03/01 02:17:08;;;;;;;23.48;10.43;;;;;;;1.35;69.93;102731.72;5071692;28;20059;-76
2022/03/01 02:19:34;;;;;;;21.38;9.85;;;;;;;1.36;70.34;102733.41;5071833;28;20054;-75
2022/03/01 02:21:59;;;;;;;28.15;10.63;;;;;;;1.34;70.61;102733.53;5071503;28;20032;-75
2022/03/01 02:24:30;;;;;;;22.35;11.25;;;;;;;1.33;70.27;102738.84;5072110;28;20082;-75
2022/03/01 02:27:00;;;;;;;20.10;9.30;;;;;;;1.30;70.22;102743.34;5072053;28;20074;-75
2022/03/01 02:29:27;;;;;;;19.60;9.18;;;;;;;1.30;70.77;102745.97;5070173;28;20052;-75
2022/03/01 02:31:54;;;;;;;22.05;9.85;;;;;;;1.26;70.31;102733.13;5071709;28;20033;-75
2022/03/01 02:34:19;;;;;;;21.55;10.88;;;;;;;1.25;70.87;102734.88;5069624;28;20037;-76
2022/03/01 02:36:46;;;;;;;24.85;10.25;;;;;;;1.22;71.19;102727.19;5070017;28;20063;-76
2022/03/01 02:39:12;;;;;;;19.48;9.68;;;;;;;1.20;70.99;102726.41;5071258;28;20016;-75
2022/03/01 02:41:38;;;;;;;23.60;11.30;;;;;;;1.18;71.03;102728.31;5071568;28;20395;-76
2022/03/01 02:44:04;;;;;;;22.25;9.40;;;;;;;1.06;70.67;102714.09;5071378;28;20472;-76
2022/03/01 02:46:30;;;;;;;22.15;9.18;;;;;;;1.10;71.57;102730.50;5071684;28;20024;-75
2022/03/01 02:48:55;;;;;;;24.48;10.00;;;;;;;1.03;72.72;102735.28;5071642;28;20020;-75
2022/03/01 02:51:20;;;;;;;28.15;10.30;;;;;;;0.92;73.05;102735.06;5053867;28;20032;-76
2022/03/01 02:53:46;;;;;;;21.50;9.75;;;;;;;0.80;73.51;102727.88;5071050;28;20024;-75
2022/03/01 02:56:11;;;;;;;25.67;12.90;;;;;;;0.72;73.55;102722.19;5061186;28;20052;-75
2022/03/01 02:58:37;;;;;;;19.25;9.90;;;;;;;0.67;73.43;102717.19;5070089;28;20048;-75
2022/03/01 03:01:02;;;;;;;21.73;11.02;;;;;;;0.64;73.72;102720.84;5071455;28;20112;-76
2022/03/01 03:03:28;;;;;;;23.90;9.73;;;;;;;0.64;73.64;102722.63;5071388;28;20178;-75
2022/03/01 03:05:53;;;;;;;23.67;11.57;;;;;;;0.63;74.59;102724.41;5071412;28;20056;-75
2022/03/01 03:08:19;;;;;;;24.23;11.40;;;;;;;0.56;73.84;102706.47;5071735;28;20029;-75
2022/03/01 03:10:44;;;;;;;19.77;9.38;;;;;;;0.61;73.93;102704.44;5071439;28;20039;-76
2022/03/01 03:13:09;;;;;;;19.92;9.32;;;;;;;0.65;73.53;102703.31;5071223;28;20028;-75
2022/03/01 03:15:35;;;;;;;31.17;14.63;;;;;;;0.69;74.08;102690.88;5070044;28;20031;-75
2022/03/01 03:18:00;;;;;;;21.90;10.05;;;;;;;0.77;73.88;102701.78;5070192;28;20028;-75
2022/03/01 03:20:26;;;;;;;22.35;11.23;;;;;;;0.76;73.52;102703.56;5071263;28;20129;-75
2022/03/01 03:22:51;;;;;;;21.80;11.13;;;;;;;0.81;73.73;102704.16;5069848;28;20041;-75
2022/03/01 03:25:17;;;;;;;23.70;10.85;;;;;;;0.82;75.18;102707.63;5072788;28;20031;-75
2022/03/01 03:27:42;;;;;;;24.98;10.52;;;;;;;0.78;74.27;102711.34;5075543;28;20042;-75
2022/03/01 03:30:09;;;;;;;24.98;10.77;;;;;;;0.70;74.71;102709.16;5075403;28;20044;-76
2022/03/01 03:32:35;;;;;;;23.40;11.07;;;;;;;0.63;74.47;102702.56;5074038;28;20086;-75
2022/03/01 03:35:01;;;;;;;23.40;11.23;;;;;;;0.57;75.05;102695.84;5073213;28;20033;-75
2022/03/01 03:37:26;;;;;;;22.98;10.07;;;;;;;0.52;75.98;102710.19;5075335;28;20430;-75
2022/03/01 03:39:52;;;;;;;25.45;10.95;;;;;;;0.50;76.08;102715.53;5074591;28;20027;-76
2022/03/01 03:42:17;;;;;;;21.20;10.32;;;;;;;0.46;75.87;102707.91;5075109;28;20111;-76
2022/03/01 03:44:42;;;;;;;24.85;11.90;;;;;;;0.35;76.36;102693.59;5074306;28;20017;-75
2022/03/01 03:47:09;;;;;;;21.75;12.10;;;;;;;0.36;76.47;102707.56;5073284;28;20623;-75
2022/03/01 03:49:35;;;;;;;23.23;10.93;;;;;;;0.34;76.42;102709.41;5073524;28;20392;-75
2022/03/01 03:52:02;;;;;;;25.35;11.07;;;;;;;0.28;76.94;102715.00;5074461;28;20032;-76
2022/03/01 03:54:27;;;;;;;22.40;10.98;;;;;;;0.29;76.62;102706.19;5074595;28;20031;-75
2022/03/01 03:56:53;;;;;;;22.30;11.15;;;;;;;0.28;76.32;102712.38;5074982;28;20151;-75
2022/03/01 03:59:18;;;;;;;24.33;12.38;;;;;;;0.31;76.70;102707.78;5074712;28;20441;-75
2022/03/01 04:01:44;;;;;;;23.05;12.50;;;;;;;0.38;75.44;102716.19;5074282;28;20036;-75
2022/03/01 04:04:09;;;;;;;21.50;10.25;;;;;;;0.44;75.20;102707.97;5073082;28;20114;-76
2022/03/01 04:06:36;;;;;;;22.33;11.27;;;;;;;0.54;74.93;102708.31;5074487;28;20055;-75
2022/03/01 04:09:03;;;;;;;29.30;12.88;;;;;;;0.56;75.06;102695.97;5073214;28;20025;-75
2022/03/01 04:11:29;;;;;;;22.48;10.55;;;;;;;0.58;75.33;102696.72;5063798;28;20471;-75
2022/03/01 04:13:55;;;;;;;21.98;10.40;;;;;;;0.52;75.46;102699.69;5074456;28;20034;-75
2022/03/01 04:16:21;;;;;;;22.38;11.52;;;;;;;0.53;75.65;102698.75;5074532;28;20024;-75
2022/03/01 04:18:46;;;;;;;23.35;10.63;;;;;;;0.53;75.92;102704.00;5074496;28;20376;-75
2022/03/01 04:21:11;;;;;;;25.02;12.40;;;;;;;0.53;76.43;102709.25;5074440;28;20035;-75
2022/03/01 04:23:37;;;;;;;22.83;10.73;;;;;;;0.49;77.38;102716.44;5073925;28;20031;-75
2022/03/01 04:26:04;;;;;;;21.00;10.43;;;;;;;0.43;77.68;102715.00;5073706;28;20089;-75
2022/03/01 04:28:30;;;;;;;21.52;9.27;;;;;;;0.39;78.12;102713.50;5074172;28;20056;-75
2022/03/01 04:30:55;;;;;;;23.90;11.10;;;;;;;0.39;77.09;102712.63;5074052;28;20095;-75
2022/03/01 04:33:21;;;;;;;23.88;11.73;;;;;;;0.39;77.16;102717.88;5074051;28;20150;-76
2022/03/01 04:35:46;;;;;;;21.55;9.60;;;;;;;0.37;77.51;102720.59;5071865;28;20036;-75
2022/03/01 04:38:12;;;;;;;23.65;10.27;;;;;;;0.36;78.06;102707.56;5073833;28;20030;-75
2022/03/01 04:40:37;;;;;;;19.98;10.90;;;;;;;0.42;77.04;102717.75;5073798;28;20388;-77
2022/03/01 04:43:03;;;;;;;21.52;10.25;;;;;;;0.50;76.22;102718.16;5072418;28;20417;-75
2022/03/01 04:45:30;;;;;;;23.58;11.48;;;;;;;0.54;75.71;102708.31;5073835;28;20029;-75
2022/03/01 04:47:56;;;;;;;21.08;10.15;;;;;;;0.64;74.94;102710.34;5073797;28;20029;-75
2022/03/01 04:50:21;;;;;;;22.30;11.73;;;;;;;0.73;75.13;102719.47;5073790;28;20931;-75
2022/03/01 04:52:46;;;;;;;20.83;11.90;;;;;;;0.70;76.70;102700.44;5073823;28;20060;-75
2022/03/01 04:55:12;;;;;;;21.80;11.18;;;;;;;0.78;76.64;102712.19;5073484;28;20040;-75
2022/03/01 04:57:38;;;;;;;20.05;10.77;;;;;;;0.78;77.43;102713.97;5073410;28;20029;-75
2022/03/01 05:00:10;;;;;;;25.23;12.27;;;;;;;0.74;77.38;102713.31;5073689;28;20486;-75
2022/03/01 05:02:37;;;;;;;22.65;12.20;;;;;;;0.71;77.28;102710.00;5072716;28;20406;-75
2022/03/01 05:05:02;;;;;;;23.38;11.68;;;;;;;0.70;75.83;102713.56;5073536;28;20032;-75
2022/03/01 05:07:27;;;;;;;24.58;11.10;;;;;;;0.73;75.47;102702.88;5073800;28;20456;-75
2022/03/01 05:09:54;;;;;;;25.15;11.40;;;;;;;0.71;75.93;102694.22;5073024;28;20100;-75
2022/03/01 05:12:20;;;;;;;22.50;11.82;;;;;;;0.77;76.53;102707.88;5072296;28;20036;-75
2022/03/01 05:14:45;;;;;;;24.05;12.18;;;;;;;0.76;77.10;102698.31;5073103;28;20032;-75
2022/03/01 05:17:11;;;;;;;20.40;9.45;;;;;;;0.73;76.82;102697.63;5071852;28;20468;-75
2022/03/01 05:19:37;;;;;;;20.58;9.68;;;;;;;0.67;76.74;102704.06;5072188;28;20111;-75
2022/03/01 05:22:03;;;;;;;24.05;11.65;;;;;;;0.65;77.61;102700.69;5073094;28;20104;-76
2022/03/01 05:24:28;;;;;;;23.67;10.63;;;;;;;0.65;77.99;102708.56;5072932;28;20032;-76
2022/03/01 05:26:54;;;;;;;20.17;10.43;;;;;;;0.62;77.66;102704.31;5071905;28;20032;-75
2022/03/01 05:29:19;;;;;;;22.30;10.13;;;;;;;0.59;77.81;102701.88;5072796;28;20480;-75
2022/03/01 05:31:45;;;;;;;22.38;10.75;;;;;;;0.58;78.45;102696.72;5072969;28;20059;-76
2022/03/01 05:34:11;;;;;;;23.92;10.82;;;;;;;0.54;78.60;102695.19;5072612;28;20021;-77
2022/03/01 05:36:36;;;;;;;22.75;11.77;;;;;;;0.51;77.76;102695.38;5073010;28;20060;-75
2022/03/01 05:39:01;;;;;;;22.73;10.85;;;;;;;0.53;77.58;102694.34;5072011;28;20498;-75
2022/03/01 05:41:28;;;;;;;24.38;10.93;;;;;;;0.52;76.82;102689.19;5072752;28;20088;-75
2022/03/01 05:43:53;;;;;;;26.42;11.02;;;;;;;0.53;76.87;102677.75;5072085;28;20115;-75
2022/03/01 05:46:19;;;;;;;23.08;10.88;;;;;;;0.60;76.65;102682.59;5072778;28;20095;-75
2022/03/01 05:48:44;;;;;;;25.00;11.15;;;;;;;0.63;76.46;102681.56;5072064;28;20140;-75
2022/03/01 05:51:10;;;;;;;23.85;10.50;;;;;;;0.64;76.48;102676.22;5072335;28;20032;-75
2022/03/01 05:53:35;;;;;;;21.40;8.88;;;;;;;0.62;76.20;102674.59;5072626;28;20032;-75
2022/03/01 05:56:01;;;;;;;22.58;10.73;;;;;;;0.66;76.71;102673.50;5072029;28;20492;-75
2022/03/01 05:58:26;;;;;;;25.55;15.57;;;;;;;0.68;76.69;102679.50;5072697;28;20028;-75
2022/03/01 06:00:51;;;;;;;22.70;11.30;;;;;;;0.59;76.00;102659.88;5072544;28;20471;-75
2022/03/01 06:03:17;;;;;;;22.48;11.27;;;;;;;0.68;76.58;102670.78;5072283;28;20051;-75
2022/03/01 06:05:42;;;;;;;24.35;10.20;;;;;;;0.59;76.27;102666.91;5070871;28;20541;-75
2022/03/01 06:08:07;;;;;;;25.75;11.38;;;;;;;0.64;76.46;102668.34;5072305;28;20072;-75
2022/03/01 06:10:33;;;;;;;24.48;11.52;;;;;;;0.60;76.19;102663.34;5072099;28;20060;-75
2022/03/01 06:12:58;;;;;;;22.25;10.05;;;;;;;0.56;76.24;102667.09;5070771;28;20467;-75
2022/03/01 06:15:23;;;;;;;25.80;11.30;;;;;;;0.57;76.40;102661.72;5072032;28;20036;-76
2022/03/01 06:17:49;;;;;;;22.95;10.77;;;;;;;0.55;76.54;102666.25;5070137;28;20051;-75
2022/03/01 06:20:14;;;;;;;21.48;11.40;;;;;;;0.53;76.49;102675.13;5072288;28;20111;-75
2022/03/01 06:22:41;;;;;;;25.00;11.80;;;;;;;0.49;76.62;102677.06;5071718;28;20032;-75
2022/03/01 06:25:08;;;;;;;22.55;12.50;;;;;;;0.43;76.51;102672.16;5071749;28;20075;-75
2022/03/01 06:27:37;;;;;;;26.75;13.48;;;;;;;0.42;76.85;102668.72;5071684;28;20028;-75
2022/03/01 06:30:05;;;;;;;39.35;13.43;;;;;;;0.40;76.80;102665.31;5070652;28;20488;-75
2022/03/01 06:32:30;;;;;;;25.92;13.00;;;;;;;0.39;76.89;102671.50;5069527;28;20468;-75
2022/03/01 06:34:55;;;;;;;28.85;14.02;;;;;;;0.37;76.65;102664.66;5071353;28;20128;-75
2022/03/01 06:37:21;;;;;;;28.23;13.57;;;;;;;0.42;76.84;102678.38;5071597;28;20419;-75
2022/03/01 06:39:47;;;;;;;22.65;11.18;;;;;;;0.41;76.98;102679.28;5071117;28;20059;-75
2022/03/01 06:42:13;;;;;;;25.83;12.25;;;;;;;0.44;76.45;102687.81;5070902;28;20037;-75
2022/03/01 06:44:39;;;;;;;28.60;13.43;;;;;;;0.49;76.61;102692.81;5070650;28;20033;-75
2022/03/01 06:47:05;;;;;;;24.23;12.90;;;;;;;0.53;77.03;102689.09;5071313;28;20040;-75
2022/03/01 06:49:31;;;;;;;24.60;13.32;;;;;;;0.58;77.24;102692.31;5071395;28;20117;-75
2022/03/01 06:51:57;;;;;;;26.25;13.60;;;;;;;0.65;75.33;102695.44;5071431;28;20508;-75
2022/03/01 06:54:23;;;;;;;28.55;14.02;;;;;;;0.76;75.61;102706.19;5071369;28;20497;-75
2022/03/01 06:56:48;;;;;;;25.17;13.25;;;;;;;0.86;75.23;102712.63;5071361;28;20114;-75
2022/03/01 06:59:14;;;;;;;27.40;11.38;;;;;;;0.95;74.41;102715.66;5070451;28;20025;-75
2022/03/01 07:01:40;;;;;;;26.13;12.75;;;;;;;1.07;73.89;102718.44;5070639;28;20044;-75
2022/03/01 07:04:05;;;;;;;25.83;11.45;;;;;;;1.14;73.46;102716.28;5071268;28;20024;-78
2022/03/01 07:06:31;;;;;;;22.67;12.68;;;;;;;1.26;73.38;102725.25;5071009;28;20056;-75
2022/03/01 07:08:56;;;;;;;25.90;11.27;;;;;;;1.39;72.83;102726.22;5070412;28;20032;-75
2022/03/01 07:11:22;;;;;;;24.35;12.25;;;;;;;1.56;72.52;102727.00;5053202;28;20507;-77
2022/03/01 07:13:47;;;;;;;27.13;11.52;;;;;;;1.75;72.11;102722.31;5071281;28;20032;-75
2022/03/01 07:16:13;;;;;;;26.75;15.25;;;;;;;1.85;71.33;102714.72;5071266;28;20373;-75
2022/03/01 07:18:38;;;;;;;23.17;11.63;;;;;;;1.94;70.99;102714.16;5070249;28;20047;-75
2022/03/01 07:21:04;;;;;;;26.15;12.52;;;;;;;2.07;70.81;102725.63;5071378;28;20128;-75
2022/03/01 07:23:29;;;;;;;21.73;10.93;;;;;;;2.17;70.99;102725.88;5069924;28;20116;-76
2022/03/01 07:25:55;;;;;;;23.27;11.75;;;;;;;2.26;70.19;102729.75;5070993;28;20028;-75
2022/03/01 07:28:21;;;;;;;25.67;10.60;;;;;;;2.24;70.34;102724.56;5070955;28;20131;-75
2022/03/01 07:30:47;;;;;;;26.30;11.57;;;;;;;2.23;70.09;102704.44;5069757;28;20131;-75
2022/03/01 07:33:12;;;;;;;23.00;10.48;;;;;;;2.35;70.55;102710.72;5070959;28;20036;-76
2022/03/01 07:35:38;;;;;;;22.20;11.80;;;;;;;2.36;70.68;102701.91;5071180;28;20119;-75
2022/03/01 07:38:03;;;;;;;22.45;11.00;;;;;;;2.47;69.99;102717.84;5070881;28;20043;-76
2022/03/01 07:40:28;;;;;;;21.85;11.23;;;;;;;2.57;69.73;102728.66;5070897;28;20090;-77
2022/03/01 07:42:54;;;;;;;23.73;11.75;;;;;;;2.72;70.00;102735.53;5070345;28;20373;-76
2022/03/01 07:45:20;;;;;;;22.10;10.95;;;;;;;2.80;69.12;102743.84;5071123;28;20082;-75
2022/03/01 07:47:46;;;;;;;25.95;13.45;;;;;;;2.84;70.22;102734.75;5070390;28;20025;-76
2022/03/01 07:50:11;;;;;;;24.70;12.63;;;;;;;2.89;67.95;102731.84;5070403;28;20021;-77
2022/03/01 07:52:37;;;;;;;23.95;11.15;;;;;;;2.89;68.54;102742.38;5070954;28;20472;-76
2022/03/01 07:55:04;;;;;;;23.20;10.20;;;;;;;2.92;67.75;102743.97;5071115;28;20036;-76
2022/03/01 07:57:30;;;;;;;23.35;10.70;;;;;;;2.92;67.86;102734.28;5070641;28;20028;-76
2022/03/01 07:59:55;;;;;;;22.08;10.95;;;;;;;2.94;68.16;102727.13;5070542;28;20574;-76
2022/03/01 08:02:20;;;;;;;18.40;8.60;;;;;;;3.03;68.30;102726.50;5070933;28;20028;-76
2022/03/01 08:04:46;;;;;;;19.10;8.60;;;;;;;3.04;67.50;102728.22;5070949;28;20028;-75
2022/03/01 08:07:12;;;;;;;22.33;10.73;;;;;;;2.99;67.17;102727.66;5069994;28;20039;-75
2022/03/01 08:09:39;;;;;;;22.10;10.27;;;;;;;2.97;68.25;102732.19;5069297;28;20162;-76
2022/03/01 08:12:05;;;;;;;18.83;9.48;;;;;;;2.94;67.14;102726.28;5073339;28;20113;-76
2022/03/01 08:14:31;;;;;;;19.58;10.43;;;;;;;2.90;68.31;102735.31;5074101;28;20021;-77
2022/03/01 08:16:58;;;;;;;23.90;10.10;;;;;;;2.88;68.10;102742.47;5074735;28;20028;-77
2022/03/01 08:19:23;;;;;;;22.45;11.38;;;;;;;2.84;68.03;102740.03;5073509;28;20020;-75
2022/03/01 08:21:49;;;;;;;20.17;9.90;;;;;;;2.84;67.80;102734.75;5073879;28;20024;-78
2022/03/01 08:24:15;;;;;;;20.73;9.60;;;;;;;2.79;67.95;102723.69;5073701;28;20901;-75
2022/03/01 08:26:40;;;;;;;22.00;9.57;;;;;;;2.94;68.45;102736.81;5074279;28;20036;-75
2022/03/01 08:29:06;;;;;;;22.42;10.23;;;;;;;2.96;67.83;102722.59;5074283;28;20030;-75
2022/03/01 08:31:31;;;;;;;20.38;8.95;;;;;;;3.06;68.97;102734.19;5074074;28;20025;-76
2022/03/01 08:33:59;;;;;;;25.88;12.02;;;;;;;3.13;68.41;102733.81;5073720;28;20035;-75
2022/03/01 08:36:25;;;;;;;21.83;9.50;;;;;;;3.14;68.09;102730.22;5073356;28;20075;-75
2022/03/01 08:38:51;;;;;;;23.95;11.38;;;;;;;3.22;68.34;102741.97;5073916;28;20051;-75
2022/03/01 08:41:16;;;;;;;21.20;10.13;;;;;;;3.26;68.35;102740.78;5072374;28;20441;-77
2022/03/01 08:43:41;;;;;;;22.55;9.13;;;;;;;3.37;67.93;102742.72;5073789;28;20383;-75
2022/03/01 08:46:13;;;;;;;22.45;9.90;;;;;;;3.45;67.66;102747.47;5073869;28;20020;-75
2022/03/01 08:48:39;;;;;;;25.45;11.23;;;;;;;3.50;68.10;102746.22;5073468;28;20029;-75
2022/03/01 08:51:05;;;;;;;22.52;10.32;;;;;;;3.58;67.76;102736.94;5074031;28;20494;-75
2022/03/01 08:53:31;;;;;;;25.45;12.85;;;;;;;3.66;66.98;102739.91;5073798;28;20036;-77
2022/03/01 08:55:57;;;;;;;23.20;10.88;;;;;;;3.70;67.12;102742.22;5072134;28;20036;-75
2022/03/01 08:58:22;;;;;;;25.35;10.88;;;;;;;3.81;66.97;102743.28;5073656;28;20028;-77
2022/03/01 09:00:48;;;;;;;23.95;10.25;;;;;;;3.86;66.02;102743.81;5073610;28;20058;-75
2022/03/01 09:03:13;;;;;;;21.20;9.35;;;;;;;3.99;67.02;102759.66;5073450;28;20116;-76
2022/03/01 09:05:39;;;;;;;18.33;9.73;;;;;;;4.12;67.38;102760.50;5073488;28;20058;-77
2022/03/01 09:08:04;;;;;;;20.88;11.27;;;;;;;4.34;67.10;102775.66;5072500;28;20029;-75
2022/03/01 09:10:30;;;;;;;20.83;8.82;;;;;;;4.54;65.58;102771.63;5073187;28;20028;-75
2022/03/01 09:12:57;;;;;;;20.67;9.77;;;;;;;4.70;64.71;102774.00;5073179;28;20033;-77
2022/03/01 09:15:23;;;;;;;22.63;12.30;;;;;;;4.86;64.46;102771.09;5071674;28;20089;-76
2022/03/01 09:17:49;;;;;;;21.65;9.32;;;;;;;4.96;64.86;102767.66;5073101;28;20674;-75
2022/03/01 09:20:14;;;;;;;24.77;10.13;;;;;;;5.11;63.77;102773.63;5073288;28;20085;-75
2022/03/01 09:22:40;;;;;;;21.67;11.52;;;;;;;5.22;64.21;102775.50;5071917;28;20036;-76
2022/03/01 09:25:06;;;;;;;20.23;9.93;;;;;;;5.37;64.19;102776.13;5055157;28;20040;-75
2022/03/01 09:27:32;;;;;;;23.40;10.15;;;;;;;5.53;63.54;102773.16;5072934;28;20035;-76
2022/03/01 09:29:58;;;;;;;19.80;9.02;;;;;;;5.67;63.10;102770.34;5072552;28;20053;-75
2022/03/01 09:32:25;;;;;;;19.35;9.27;;;;;;;5.90;60.63;102776.50;5072608;28;20029;-76
2022/03/01 09:34:50;;;;;;;21.10;9.52;;;;;;;6.00;59.75;102774.88;5072384;28;20028;-76
2022/03/01 09:37:16;;;;;;;23.50;10.70;;;;;;;6.14;61.43;102774.63;5072465;28;20056;-75
2022/03/01 09:39:41;;;;;;;19.13;9.32;;;;;;;6.40;62.45;102766.44;5071509;28;20024;-75
2022/03/01 09:42:08;;;;;;;19.08;10.48;;;;;;;6.49;58.45;102767.50;5071452;28;20032;-76
2022/03/01 09:44:34;;;;;;;22.35;11.02;;;;;;;6.34;58.78;102765.13;5072493;28;20032;-77
2022/03/01 09:47:00;;;;;;;20.90;9.82;;;;;;;6.31;60.95;102773.31;5072312;28;20051;-76
2022/03/01 09:49:25;;;;;;;20.55;10.65;;;;;;;6.31;60.07;102765.38;5072408;28;20029;-78
2022/03/01 09:51:51;;;;;;;21.00;11.05;;;;;;;6.33;59.78;102759.94;5072273;28;20119;-76
2022/03/01 09:54:16;;;;;;;24.33;11.32;;;;;;;6.35;59.66;102764.16;5072549;28;20044;-75
2022/03/01 09:56:42;;;;;;;20.75;9.93;;;;;;;6.36;60.29;102752.56;5072444;28;20610;-75
2022/03/01 09:59:08;;;;;;;20.42;9.43;;;;;;;6.47;59.56;102759.69;5072081;28;20032;-75
2022/03/01 10:01:33;;;;;;;20.38;10.32;;;;;;;6.58;59.26;102770.28;5071674;28;20039;-76
2022/03/01 10:04:09;;;;;;;21.83;10.38;;;;;;;6.75;60.53;102770.72;5070649;28;20031;-75
2022/03/01 10:06:43;;;;;;;21.42;9.02;;;;;;;6.91;60.01;102763.19;5071566;28;20036;-75
2022/03/01 10:09:17;;;;;;;20.67;10.13;;;;;;;7.19;58.56;102760.94;5071330;28;20086;-78
2022/03/01 10:11:43;;;;;;;21.83;10.05;;;;;;;7.37;57.61;102767.38;5071516;28;20032;-75
2022/03/01 10:14:09;;;;;;;22.70;10.45;;;;;;;7.46;58.15;102763.91;5072048;28;20142;-75
2022/03/01 10:16:40;;;;;;;19.25;9.98;;;;;;;7.57;58.33;102764.84;5071671;28;20020;-75
2022/03/01 10:19:11;;;;;;;19.75;9.63;;;;;;;7.63;58.42;102774.97;5071848;28;20020;-76
2022/03/01 10:21:36;;;;;;;19.25;9.48;;;;;;;7.59;56.29;102786.78;5071207;28;20105;-75
2022/03/01 10:24:07;;;;;;;24.23;10.93;;;;;;;7.53;57.10;102784.66;5071797;28;20036;-75
2022/03/01 10:26:32;;;;;;;20.02;9.00;;;;;;;7.54;58.62;102789.84;5071482;28;20063;-75
2022/03/01 10:28:59;;;;;;;20.60;11.38;;;;;;;7.53;58.36;102776.69;5071727;28;20484;-75
2022/03/01 10:31:27;;;;;;;21.15;10.50;;;;;;;7.55;58.61;102770.28;5070766;28;20056;-75
2022/03/01 10:33:55;;;;;;;21.33;9.77;;;;;;;7.55;57.00;102767.63;5071425;28;20081;-75
2022/03/01 10:36:27;;;;;;;20.40;10.63;;;;;;;7.47;56.13;102767.44;5071411;28;20028;-75
2022/03/01 10:39:01;;;;;;;19.58;9.75;;;;;;;7.43;57.31;102764.19;5069996;28;20383;-75
2022/03/01 10:41:29;;;;;;;20.65;9.57;;;;;;;7.54;56.55;102757.13;5067911;28;20017;-78
2022/03/01 10:43:59;;;;;;;24.15;10.02;;;;;;;7.60;56.49;102757.47;5061753;28;20035;-78
2022/03/01 10:46:28;;;;;;;26.83;12.45;;;;;;;7.65;56.76;102755.28;5062248;28;20036;-77
2022/03/01 10:49:15;;;;;;;21.90;11.10;;;;;;;7.74;55.80;102758.09;5062923;28;20016;-77
2022/03/01 10:51:59;;;;;;;21.65;10.63;;;;;;;7.85;56.72;102752.72;5064004;28;20119;-77
2022/03/01 10:54:35;;;;;;;23.55;13.23;;;;;;;7.95;56.04;102758.09;5063319;28;20025;-76
2022/03/01 10:57:04;;;;;;;22.67;10.10;;;;;;;8.03;54.88;102752.94;5061641;28;20063;-77
2022/03/01 10:59:32;;;;;;;22.00;11.07;;;;;;;8.11;53.35;102761.09;5061547;28;20020;-76
2022/03/01 11:01:57;;;;;;;20.65;11.07;;;;;;;7.97;53.43;102767.59;5061139;28;20027;-76
2022/03/01 11:04:27;;;;;;;26.02;12.18;;;;;;;7.96;56.80;102763.25;5063248;28;20058;-77
2022/03/01 11:06:55;;;;;;;22.75;10.80;;;;;;;8.10;56.46;102778.03;5062462;28;20428;-77
2022/03/01 11:09:24;;;;;;;20.92;9.18;;;;;;;8.19;54.76;102773.72;5058138;28;20029;-77
2022/03/01 11:11:51;;;;;;;19.30;9.23;;;;;;;8.28;55.17;102780.91;5061370;28;20044;-76
2022/03/01 11:14:29;;;;;;;20.60;9.63;;;;;;;8.38;55.51;102767.63;5063083;28;20029;-76